Time;durP1;ratioP1;P1;durP2;ratioP2;P2;SDS_P1;SDS_P2;PMS_P1;PMS_P2;Temp;Humidity;BMP_temperature;BMP_pressure;BME280_temperature;BME280_humidity;BME280_pressure;Samples;Min_cycle;Max_cycle;Signal;HPM_P1;HPM_P2
2023/12/13 00:01:31;;;;;;;;;;;;;;;;;;5093230;28;19908;-73
2023/12/13 00:03:57;;;;;;;;;;;;;;;;;;5092879;28;20395;-73
2023/12/13 00:06:24;;;;;;;;;;;;;;;;;;5092858;28;19972;-73
2023/12/13 00:08:50;;;;;;;;;;;;;;;;;;5091361;28;19916;-73
2023/12/13 00:11:16;;;;;;;;;;;;;;;;;;5092770;28;20177;-73
2023/12/13 00:13:42;;;;;;;;;;;;;;;;;;5092545;28;19908;-73
2023/12/13 00:16:08;;;;;;;;;;;;;;;;;;5093109;28;19965;-73
2023/12/13 00:18:35;;;;;;;;;;;;;;;;;;5093048;28;19914;-73
2023/12/13 00:21:01;;;;;;;;;;;;;;;;;;5092782;28;19912;-73
2023/12/13 00:23:27;;;;;;;;;;;;;;;;;;5092325;28;20387;-73
2023/12/13 00:25:53;;;;;;;;;;;;;;;;;;5092664;28;19908;-73
2023/12/13 00:28:19;;;;;;;;;;;;;;;;;;5093159;28;19908;-73
2023/12/13 00:30:45;;;;;;;;;;;;;;;;;;5092924;28;19912;-74
2023/12/13 00:33:12;;;;;;;;;;;;;;;;;;5092491;28;19908;-73
2023/12/13 00:35:38;;;;;;;;;;;;;;;;;;5092539;28;20258;-73
2023/12/13 00:38:04;;;;;;;;;;;;;;;;;;5092326;28;20315;-72
2023/12/13 00:40:30;;;;;;;;;;;;;;;;;;5092405;28;19920;-73
2023/12/13 00:42:57;;;;;;;;;;;;;;;;;;5092659;28;19953;-73
2023/12/13 00:45:23;;;;;;;;;;;;;;;;;;5092471;28;19916;-73
2023/12/13 00:47:49;;;;;;;;;;;;;;;;;;5092506;28;20410;-73
2023/12/13 00:50:15;;;;;;;;;;;;;;;;;;5092729;28;19912;-73
2023/12/13 00:52:41;;;;;;;;;;;;;;;;;;5092295;28;19908;-73
2023/12/13 00:55:08;;;;;;;;;;;;;;;;;;5092595;28;19912;-73
2023/12/13 00:57:34;;;;;;;;;;;;;;;;;;5092359;28;19909;-73
2023/12/13 01:00:00;;;;;;;;;;;;;;;;;;5092393;28;20296;-73
2023/12/13 01:02:27;;;;;;;;;;;;;;;;;;5092743;28;19977;-73
2023/12/13 01:04:53;;;;;;;;;;;;;;;;;;5092484;28;19908;-73
2023/12/13 01:07:19;;;;;;;;;;;;;;;;;;5092030;28;19926;-73
2023/12/13 01:09:45;;;;;;;;;;;;;;;;;;5092232;28;19916;-73
2023/12/13 01:12:13;;;;;;;;;;;;;;;;;;5092877;28;19908;-73
2023/12/13 01:14:39;;;;;;;;;;;;;;;;;;5092402;28;19961;-73
2023/12/13 01:17:05;;;;;;;;;;;;;;;;;;5092423;28;19909;-73
2023/12/13 01:19:31;;;;;;;;;;;;;;;;;;5092104;28;20317;-73
2023/12/13 01:21:57;;;;;;;;;;;;;;;;;;5092155;28;19909;-73
2023/12/13 01:24:24;;;;;;;;;;;;;;;;;;5092401;28;19908;-73
2023/12/13 01:26:50;;;;;;;;;;;;;;;;;;5095893;27;19926;-73
2023/12/13 01:29:16;;;;;;;;;;;;;;;;;;5095949;28;19922;-73
2023/12/13 01:31:42;;;;;;;;;;;;;;;;;;5096453;28;19912;-73
2023/12/13 01:34:08;;;;;;;;;;;;;;;;;;5095576;28;19997;-73
2023/12/13 01:36:35;;;;;;;;;;;;;;;;;;5095500;28;19909;-72
2023/12/13 01:39:01;;;;;;;;;;;;;;;;;;5095689;28;19914;-73
2023/12/13 01:41:27;;;;;;;;;;;;;;;;;;5095586;28;19930;-73
2023/12/13 01:43:53;;;;;;;;;;;;;;;;;;5094810;28;19916;-73
2023/12/13 01:46:19;;;;;;;;;;;;;;;;;;5095448;28;19912;-73
2023/12/13 01:48:45;;;;;;;;;;;;;;;;;;5094171;28;20384;-73
2023/12/13 01:51:12;;;;;;;;;;;;;;;;;;5095833;28;19908;-73
2023/12/13 01:53:38;;;;;;;;;;;;;;;;;;5095524;28;19908;-73
2023/12/13 01:56:04;;;;;;;;;;;;;;;;;;5095421;28;19912;-73
2023/12/13 01:58:30;;;;;;;;;;;;;;;;;;5095696;28;19912;-73
2023/12/13 02:00:56;;;;;;;;;;;;;;;;;;5095579;28;19963;-73
2023/12/13 02:03:22;;;;;;;;;;;;;;;;;;5094900;28;19923;-73
2023/12/13 02:05:49;;;;;;;;;;;;;;;;;;5095156;28;19908;-73
2023/12/13 02:08:15;;;;;;;;;;;;;;;;;;5095180;28;19920;-73
2023/12/13 02:10:41;;;;;;;;;;;;;;;;;;5095095;28;19912;-73
2023/12/13 02:13:07;;;;;;;;;;;;;;;;;;5095237;28;19908;-73
2023/12/13 02:15:35;;;;;;;;;;;;;;;;;;5095374;28;19912;-73
2023/12/13 02:18:02;;;;;;;;;;;;;;;;;;5094783;28;19909;-73
2023/12/13 02:20:28;;;;;;;;;;;;;;;;;;5095134;28;19915;-73
2023/12/13 02:22:54;;;;;;;;;;;;;;;;;;5094778;28;19908;-73
2023/12/13 02:25:20;;;;;;;;;;;;;;;;;;5074859;28;19914;-73
2023/12/13 02:27:46;;;;;;;;;;;;;;;;;;5090330;28;19924;-73
2023/12/13 02:30:13;;;;;;;;;;;;;;;;;;5074841;28;19908;-73
2023/12/13 02:32:39;;;;;;;;;;;;;;;;;;5074186;28;20273;-73
2023/12/13 02:35:06;;;;;;;;;;;;;;;;;;5074388;28;19909;-73
2023/12/13 02:37:32;;;;;;;;;;;;;;;;;;5074170;28;20284;-73
2023/12/13 02:39:58;;;;;;;;;;;;;;;;;;5074613;28;19962;-73
2023/12/13 02:42:27;;;;;;;;;;;;;;;;;;5074373;28;19908;-73
2023/12/13 02:44:53;;;;;;;;;;;;;;;;;;5079276;28;19912;-73
2023/12/13 02:47:21;;;;;;;;;;;;;;;;;;5093827;28;20311;-73
2023/12/13 02:49:47;;;;;;;;;;;;;;;;;;5094400;28;19908;-73
2023/12/13 02:52:13;;;;;;;;;;;;;;;;;;5094263;28;19914;-73
2023/12/13 02:54:40;;;;;;;;;;;;;;;;;;5094483;28;19912;-73
2023/12/13 02:57:06;;;;;;;;;;;;;;;;;;5093378;28;19908;-73
2023/12/13 02:59:32;;;;;;;;;;;;;;;;;;5094306;28;19915;-73
2023/12/13 03:01:58;;;;;;;;;;;;;;;;;;5093845;28;19919;-73
2023/12/13 03:04:24;;;;;;;;;;;;;;;;;;5094219;28;19914;-73
2023/12/13 03:06:51;;;;;;;;;;;;;;;;;;5093784;28;19920;-73
2023/12/13 03:09:17;;;;;;;;;;;;;;;;;;5094038;28;20357;-73
2023/12/13 03:11:43;;;;;;;;;;;;;;;;;;5094206;28;19912;-73
2023/12/13 03:14:09;;;;;;;;;;;;;;;;;;5093846;28;20258;-73
2023/12/13 03:16:36;;;;;;;;;;;;;;;;;;5093696;28;19908;-73
2023/12/13 03:19:02;;;;;;;;;;;;;;;;;;5094197;28;19912;-73
2023/12/13 03:21:28;;;;;;;;;;;;;;;;;;5093685;28;20444;-73
2023/12/13 03:23:55;;;;;;;;;;;;;;;;;;5093746;28;20287;-73
2023/12/13 03:26:21;;;;;;;;;;;;;;;;;;5093640;28;19908;-73
2023/12/13 03:28:47;;;;;;;;;;;;;;;;;;5126498;27;19916;-73
2023/12/13 03:31:13;;;;;;;;;;;;;;;;;;5093192;28;19916;-73
2023/12/13 03:33:39;;;;;;;;;;;;;;;;;;5093384;28;20316;-73
2023/12/13 03:36:06;;;;;;;;;;;;;;;;;;5093702;28;19908;-73
2023/12/13 03:38:32;;;;;;;;;;;;;;;;;;5093646;28;19908;-73
2023/12/13 03:40:58;;;;;;;;;;;;;;;;;;5093297;28;20372;-73
2023/12/13 03:43:24;;;;;;;;;;;;;;;;;;5092424;28;19912;-73
2023/12/13 03:45:50;;;;;;;;;;;;;;;;;;5093119;28;19912;-73
2023/12/13 03:48:16;;;;;;;;;;;;;;;;;;5092382;28;19916;-72
2023/12/13 03:50:43;;;;;;;;;;;;;;;;;;5093550;28;19964;-73
2023/12/13 03:53:09;;;;;;;;;;;;;;;;;;5092200;28;19908;-73
2023/12/13 03:55:35;;;;;;;;;;;;;;;;;;5093330;28;19915;-73
2023/12/13 03:58:01;;;;;;;;;;;;;;;;;;5093073;28;19908;-73
2023/12/13 04:00:27;;;;;;;;;;;;;;;;;;5092709;28;19908;-73
2023/12/13 04:02:53;;;;;;;;;;;;;;;;;;5091921;28;19912;-72
2023/12/13 04:05:20;;;;;;;;;;;;;;;;;;5092899;28;19953;-73
2023/12/13 04:07:46;;;;;;;;;;;;;;;;;;5092802;28;19920;-73
2023/12/13 04:10:12;;;;;;;;;;;;;;;;;;5093061;28;20383;-73
2023/12/13 04:12:38;;;;;;;;;;;;;;;;;;5092755;28;19915;-73
2023/12/13 04:15:04;;;;;;;;;;;;;;;;;;5092619;28;19914;-73
2023/12/13 04:17:30;;;;;;;;;;;;;;;;;;5093092;28;19919;-73
2023/12/13 04:19:58;;;;;;;;;;;;;;;;;;5093192;28;19912;-73
2023/12/13 04:22:24;;;;;;;;;;;;;;;;;;5093082;28;19908;-73
2023/12/13 04:24:50;;;;;;;;;;;;;;;;;;5092906;28;19908;-73
2023/12/13 04:27:17;;;;;;;;;;;;;;;;;;5092849;28;19995;-73
2023/12/13 04:29:43;;;;;;;;;;;;;;;;;;5092234;28;19908;-73
2023/12/13 04:32:09;;;;;;;;;;;;;;;;;;5092760;28;19912;-73
2023/12/13 04:34:35;;;;;;;;;;;;;;;;;;5092606;28;19908;-73
2023/12/13 04:37:01;;;;;;;;;;;;;;;;;;5092682;28;19919;-73
2023/12/13 04:39:28;;;;;;;;;;;;;;;;;;5091722;28;19915;-73
2023/12/13 04:41:54;;;;;;;;;;;;;;;;;;5092554;28;19909;-73
2023/12/13 04:44:20;;;;;;;;;;;;;;;;;;5092182;28;19908;-73
2023/12/13 04:46:46;;;;;;;;;;;;;;;;;;5092383;28;19923;-73
2023/12/13 04:49:12;;;;;;;;;;;;;;;;;;5092838;28;19918;-73
2023/12/13 04:51:38;;;;;;;;;;;;;;;;;;5092698;28;19962;-73
2023/12/13 04:54:05;;;;;;;;;;;;;;;;;;5091640;28;19919;-73
2023/12/13 04:56:31;;;;;;;;;;;;;;;;;;5092274;28;19908;-72
2023/12/13 04:58:57;;;;;;;;;;;;;;;;;;5093119;28;19908;-73
2023/12/13 05:01:23;;;;;;;;;;;;;;;;;;5096488;28;19916;-73
2023/12/13 05:03:49;;;;;;;;;;;;;;;;;;5096554;28;19912;-73
2023/12/13 05:06:15;;;;;;;;;;;;;;;;;;5096536;28;19916;-72
2023/12/13 05:08:41;;;;;;;;;;;;;;;;;;5096341;28;19912;-73
2023/12/13 05:11:08;;;;;;;;;;;;;;;;;;5096399;28;20410;-73
2023/12/13 05:13:34;;;;;;;;;;;;;;;;;;5096353;28;19908;-73
2023/12/13 05:16:00;;;;;;;;;;;;;;;;;;5096257;28;19915;-73
2023/12/13 05:18:26;;;;;;;;;;;;;;;;;;5095228;28;19908;-73
2023/12/13 05:20:53;;;;;;;;;;;;;;;;;;5095185;28;19912;-73
2023/12/13 05:23:19;;;;;;;;;;;;;;;;;;5095915;28;19915;-73
2023/12/13 05:25:45;;;;;;;;;;;;;;;;;;5096010;28;19930;-73
2023/12/13 05:28:12;;;;;;;;;;;;;;;;;;5095574;28;19920;-73
2023/12/13 05:30:38;;;;;;;;;;;;;;;;;;5094859;28;19930;-73
2023/12/13 05:33:05;;;;;;;;;;;;;;;;;;5096215;28;19908;-73
2023/12/13 05:35:32;;;;;;;;;;;;;;;;;;5096008;28;19908;-73
2023/12/13 05:37:58;;;;;;;;;;;;;;;;;;5096096;28;19914;-73
2023/12/13 05:40:24;;;;;;;;;;;;;;;;;;5095818;28;19937;-73
2023/12/13 05:42:50;;;;;;;;;;;;;;;;;;5095583;28;19918;-73
2023/12/13 05:45:16;;;;;;;;;;;;;;;;;;5094828;28;19912;-73
2023/12/13 05:47:43;;;;;;;;;;;;;;;;;;5094470;28;19920;-73
2023/12/13 05:50:09;;;;;;;;;;;;;;;;;;5095607;28;19916;-73
2023/12/13 05:52:36;;;;;;;;;;;;;;;;;;5095332;28;20365;-73
2023/12/13 05:55:02;;;;;;;;;;;;;;;;;;5095164;28;20361;-73
2023/12/13 05:57:29;;;;;;;;;;;;;;;;;;5095830;28;19915;-73
2023/12/13 05:59:55;;;;;;;;;;;;;;;;;;5095265;28;19908;-73
2023/12/13 06:02:21;;;;;;;;;;;;;;;;;;5095301;28;19919;-73
2023/12/13 06:04:47;;;;;;;;;;;;;;;;;;5095114;28;19918;-73
2023/12/13 06:07:13;;;;;;;;;;;;;;;;;;5095053;28;19968;-73
2023/12/13 06:09:39;;;;;;;;;;;;;;;;;;5093450;28;20490;-73
2023/12/13 06:12:08;;;;;;;;;;;;;;;;;;5093403;28;20578;-73
2023/12/13 06:14:34;;;;;;;;;;;;;;;;;;5094895;28;19914;-73
2023/12/13 06:17:00;;;;;;;;;;;;;;;;;;5095014;28;19908;-73
2023/12/13 06:19:29;;;;;;;;;;;;;;;;;;5094973;28;19919;-73
2023/12/13 06:21:56;;;;;;;;;;;;;;;;;;5094888;28;19908;-73
2023/12/13 06:24:22;;;;;;;;;;;;;;;;;;5094552;28;19915;-73
2023/12/13 06:26:48;;;;;;;;;;;;;;;;;;5095088;28;20227;-73
2023/12/13 06:29:14;;;;;;;;;;;;;;;;;;5094962;28;19913;-72
2023/12/13 06:31:41;;;;;;;;;;;;;;;;;;5095113;28;19922;-73
2023/12/13 06:34:07;;;;;;;;;;;;;;;;;;5127905;27;20458;-73
2023/12/13 06:36:33;;;;;;;;;;;;;;;;;;5094446;28;20365;-73
2023/12/13 06:39:04;;;;;;;;;;;;;;;;;;5094664;28;19908;-73
2023/12/13 06:41:30;;;;;;;;;;;;;;;;;;5094637;28;19914;-73
2023/12/13 06:43:56;;;;;;;;;;;;;;;;;;5094825;28;19908;-73
2023/12/13 06:46:23;;;;;;;;;;;;;;;;;;5094532;28;19908;-73
2023/12/13 06:48:49;;;;;;;;;;;;;;;;;;5094391;28;20299;-73
2023/12/13 06:51:15;;;;;;;;;;;;;;;;;;5094519;28;19908;-73
2023/12/13 06:53:41;;;;;;;;;;;;;;;;;;5093876;28;19912;-73
2023/12/13 06:56:08;;;;;;;;;;;;;;;;;;5094372;28;19908;-72
2023/12/13 06:58:34;;;;;;;;;;;;;;;;;;5093983;28;20372;-73
2023/12/13 07:01:01;;;;;;;;;;;;;;;;;;5094095;28;19918;-73
2023/12/13 07:03:27;;;;;;;;;;;;;;;;;;5094203;28;19960;-73
2023/12/13 07:05:53;;;;;;;;;;;;;;;;;;5093933;28;20414;-73
2023/12/13 07:08:19;;;;;;;;;;;;;;;;;;5089710;28;19921;-73
2023/12/13 07:10:46;;;;;;;;;;;;;;;;;;5075113;28;19926;-73
2023/12/13 07:13:12;;;;;;;;;;;;;;;;;;5088384;28;19935;-73
2023/12/13 07:15:38;;;;;;;;;;;;;;;;;;5094247;28;19909;-73
2023/12/13 07:18:04;;;;;;;;;;;;;;;;;;5094094;28;19912;-73
2023/12/13 07:20:34;;;;;;;;;;;;;;;;;;5092179;28;19915;-73
2023/12/13 07:23:00;;;;;;;;;;;;;;;;;;5092421;28;19930;-73
2023/12/13 07:25:26;;;;;;;;;;;;;;;;;;5092668;28;19912;-73
2023/12/13 07:27:52;;;;;;;;;;;;;;;;;;5089301;28;19916;-73
2023/12/13 07:30:19;;;;;;;;;;;;;;;;;;5093279;28;19915;-73
2023/12/13 07:32:45;;;;;;;;;;;;;;;;;;5096786;28;19911;-73
2023/12/13 07:35:11;;;;;;;;;;;;;;;;;;5093987;28;19915;-73
2023/12/13 07:37:37;;;;;;;;;;;;;;;;;;5090421;28;19973;-72
2023/12/13 07:40:05;;;;;;;;;;;;;;;;;;5092674;28;19912;-73
2023/12/13 07:42:31;;;;;;;;;;;;;;;;;;5089173;28;19916;-73
2023/12/13 07:44:57;;;;;;;;;;;;;;;;;;5090393;28;19916;-75
2023/12/13 07:47:24;;;;;;;;;;;;;;;;;;5092113;28;19916;-69
2023/12/13 07:49:50;;;;;;;;;;;;;;;;;;5092028;28;19912;-71
2023/12/13 07:52:17;;;;;;;;;;;;;;;;;;5090858;28;19918;-71
2023/12/13 07:54:43;;;;;;;;;;;;;;;;;;5090653;28;20274;-74
2023/12/13 07:57:09;;;;;;;;;;;;;;;;;;5092194;28;19915;-72
2023/12/13 07:59:35;;;;;;;;;;;;;;;;;;5123775;27;19918;-70
2023/12/13 08:02:02;;;;;;;;;;;;;;;;;;5090345;28;19949;-71
2023/12/13 08:04:28;;;;;;;;;;;;;;;;;;5087905;28;19908;-71
2023/12/13 08:06:54;;;;;;;;;;;;;;;;;;5090832;28;19927;-70
2023/12/13 08:09:20;;;;;;;;;;;;;;;;;;5089815;28;19918;-71
2023/12/13 08:11:46;;;;;;;;;;;;;;;;;;5092795;28;19912;-69
2023/12/13 08:14:14;;;;;;;;;;;;;;;;;;5112184;28;20131;-75
2023/12/13 08:16:40;;;;;;;;;;;;;;;;;;5106000;28;19916;-79
2023/12/13 08:19:07;;;;;;;;;;;;;;;;;;5088397;28;20350;-70
2023/12/13 08:21:33;;;;;;;;;;;;;;;;;;5091299;28;19912;-77
2023/12/13 08:23:59;;;;;;;;;;;;;;;;;;5091392;28;19908;-75
2023/12/13 08:26:25;;;;;;;;;;;;;;;;;;5090509;28;19912;-75
2023/12/13 08:28:51;;;;;;;;;;;;;;;;;;5107970;28;20375;-78
2023/12/13 08:31:18;;;;;;;;;;;;;;;;;;5112138;28;19926;-73
2023/12/13 08:33:44;;;;;;;;;;;;;;;;;;5110893;28;19919;-71
2023/12/13 08:36:10;;;;;;;;;;;;;;;;;;5102062;28;19915;-70
2023/12/13 08:38:37;;;;;;;;;;;;;;;;;;5091752;28;19942;-72
2023/12/13 08:41:03;;;;;;;;;;;;;;;;;;5091491;28;19916;-73
2023/12/13 08:43:29;;;;;;;;;;;;;;;;;;5091546;28;19918;-72
2023/12/13 08:45:55;;;;;;;;;;;;;;;;;;5091561;28;19924;-72
2023/12/13 08:48:23;;;;;;;;;;;;;;;;;;5091586;28;19927;-73
2023/12/13 08:50:49;;;;;;;;;;;;;;;;;;5087419;28;19961;-72
2023/12/13 08:53:16;;;;;;;;;;;;;;;;;;5065029;28;19921;-72
2023/12/13 08:55:42;;;;;;;;;;;;;;;;;;5047238;28;19919;-72
2023/12/13 08:58:08;;;;;;;;;;;;;;;;;;5051021;28;19913;-73
2023/12/13 09:00:34;;;;;;;;;;;;;;;;;;5043783;28;19935;-70
2023/12/13 09:03:01;;;;;;;;;;;;;;;;;;5030443;28;19983;-71
2023/12/13 09:05:28;;;;;;;;;;;;;;;;;;5030765;28;19917;-70
2023/12/13 09:07:54;;;;;;;;;;;;;;;;;;5030633;28;19921;-70
2023/12/13 09:10:20;;;;;;;;;;;;;;;;;;5031105;28;19931;-70
2023/12/13 09:12:46;;;;;;;;;;;;;;;;;;5030328;28;19913;-70
2023/12/13 09:15:13;;;;;;;;;;;;;;;;;;5028050;28;19921;-70
2023/12/13 09:17:40;;;;;;;;;;;;;;;;;;5030703;28;19916;-69
2023/12/13 09:20:09;;;;;;;;;;;;;;;;;;5030784;28;19909;-70
2023/12/13 09:22:36;;;;;;;;;;;;;;;;;;5029474;28;19913;-70
2023/12/13 09:25:02;;;;;;;;;;;;;;;;;;5029934;28;19963;-69
2023/12/13 09:27:28;;;;;;;;;;;;;;;;;;5030711;28;19917;-70
2023/12/13 09:29:55;;;;;;;;;;;;;;;;;;5030756;28;20285;-70
2023/12/13 09:32:22;;;;;;;;;;;;;;;;;;5030682;28;19923;-72
2023/12/13 09:34:48;;;;;;;;;;;;;;;;;;5030907;28;19913;-71
2023/12/13 09:37:16;;;;;;;;;;;;;;;;;;5030414;28;19923;-70
2023/12/13 09:39:42;;;;;;;;;;;;;;;;;;5061350;28;19932;-70
2023/12/13 09:42:08;;;;;;;;;;;;;;;;;;5030469;28;19927;-70
2023/12/13 09:44:39;;;;;;;;;;;;;;;;;;5030488;28;20274;-70
2023/12/13 09:47:05;;;;;;;;;;;;;;;;;;5032685;28;19917;-70
2023/12/13 09:49:31;;;;;;;;;;;;;;;;;;5034412;28;19921;-71
2023/12/13 09:51:57;;;;;;;;;;;;;;;;;;5033785;28;19913;-69
2023/12/13 09:54:24;;;;;;;;;;;;;;;;;;5034010;28;19913;-71
2023/12/13 09:56:51;;;;;;;;;;;;;;;;;;5033827;28;20341;-70
2023/12/13 09:59:17;;;;;;;;;;;;;;;;;;5033830;28;19917;-70
2023/12/13 10:01:43;;;;;;;;;;;;;;;;;;5033450;28;19913;-69
2023/12/13 10:04:09;;;;;;;;;;;;;;;;;;5033823;28;19998;-71
2023/12/13 10:06:36;;;;;;;;;;;;;;;;;;5032183;28;19921;-70
2023/12/13 10:09:03;;;;;;;;;;;;;;;;;;5033237;28;19914;-71
2023/12/13 10:11:30;;;;;;;;;;;;;;;;;;5032244;28;19912;-70
2023/12/13 10:13:57;;;;;;;;;;;;;;;;;;5033119;28;19913;-70
2023/12/13 10:16:23;;;;;;;;;;;;;;;;;;5032462;28;19919;-70
2023/12/13 10:18:49;;;;;;;;;;;;;;;;;;5033723;28;19928;-69
2023/12/13 10:21:15;;;;;;;;;;;;;;;;;;5055343;28;19967;-70
2023/12/13 10:23:42;;;;;;;;;;;;;;;;;;5014335;28;19910;-71
2023/12/13 10:26:08;;;;;;;;;;;;;;;;;;5033118;28;19913;-70
2023/12/13 10:28:35;;;;;;;;;;;;;;;;;;5033014;28;19937;-70
2023/12/13 10:31:01;;;;;;;;;;;;;;;;;;5032963;28;19916;-70
2023/12/13 10:33:27;;;;;;;;;;;;;;;;;;5032753;28;19917;-70
2023/12/13 10:35:53;;;;;;;;;;;;;;;;;;5033466;28;20252;-70
2023/12/13 10:38:20;;;;;;;;;;;;;;;;;;5030046;28;19917;-70
2023/12/13 10:40:46;;;;;;;;;;;;;;;;;;5032747;28;19920;-70
2023/12/13 10:43:12;;;;;;;;;;;;;;;;;;5033412;28;19913;-71
2023/12/13 10:45:38;;;;;;;;;;;;;;;;;;5030648;28;19913;-71
2023/12/13 10:48:07;;;;;;;;;;;;;;;;;;5031980;28;19992;-71
2023/12/13 10:50:34;;;;;;;;;;;;;;;;;;5030683;28;19913;-71
2023/12/13 10:53:00;;;;;;;;;;;;;;;;;;5032241;28;19919;-70
2023/12/13 10:55:26;;;;;;;;;;;;;;;;;;5033183;28;19920;-70
2023/12/13 10:57:53;;;;;;;;;;;;;;;;;;5030132;28;19920;-71
2023/12/13 11:00:19;;;;;;;;;;;;;;;;;;5032743;28;19920;-71
2023/12/13 11:02:45;;;;;;;;;;;;;;;;;;5029713;28;19913;-71
2023/12/13 11:05:12;;;;;;;;;;;;;;;;;;5030560;28;19986;-71
2023/12/13 11:07:38;;;;;;;;;;;;;;;;;;5032374;28;19927;-70
2023/12/13 11:10:05;;;;;;;;;;;;;;;;;;5032403;28;20378;-70
2023/12/13 11:12:31;;;;;;;;;;;;;;;;;;5032391;28;20396;-71
2023/12/13 11:14:59;;;;;;;;;;;;;;;;;;5032436;28;19913;-70
2023/12/13 11:17:25;;;;;;;;;;;;;;;;;;5032446;28;19909;-70
2023/12/13 11:19:52;;;;;;;;;;;;;;;;;;5032455;28;19917;-71
2023/12/13 11:22:18;;;;;;;;;;;;;;;;;;5032548;28;19909;-71
2023/12/13 11:24:44;;;;;;;;;;;;;;;;;;5032376;28;20362;-71
2023/12/13 11:27:10;;;;;;;;;;;;;;;;;;5032402;28;19921;-70
2023/12/13 11:29:36;;;;;;;;;;;;;;;;;;5031750;28;19913;-71
2023/12/13 11:32:03;;;;;;;;;;;;;;;;;;5032418;28;19920;-72
2023/12/13 11:34:29;;;;;;;;;;;;;;;;;;5032471;28;19915;-71
2023/12/13 11:36:55;;;;;;;;;;;;;;;;;;5032620;28;19921;-71
2023/12/13 11:39:22;;;;;;;;;;;;;;;;;;5032494;28;19913;-71
2023/12/13 11:41:48;;;;;;;;;;;;;;;;;;5029957;28;20371;-71
2023/12/13 11:44:14;;;;;;;;;;;;;;;;;;5032275;28;19909;-71
2023/12/13 11:46:41;;;;;;;;;;;;;;;;;;5031902;28;19913;-70
2023/12/13 11:49:07;;;;;;;;;;;;;;;;;;5032188;28;19909;-71
2023/12/13 11:51:33;;;;;;;;;;;;;;;;;;5032073;28;20283;-71
2023/12/13 11:54:00;;;;;;;;;;;;;;;;;;5030353;28;19919;-71
2023/12/13 11:56:26;;;;;;;;;;;;;;;;;;5031826;28;19919;-72
2023/12/13 11:58:52;;;;;;;;;;;;;;;;;;5031166;28;20386;-71
2023/12/13 12:01:19;;;;;;;;;;;;;;;;;;5031735;28;20287;-70
2023/12/13 12:03:45;;;;;;;;;;;;;;;;;;5030531;28;20392;-71
2023/12/13 12:06:11;;;;;;;;;;;;;;;;;;5031521;28;19931;-71
2023/12/13 12:08:38;;;;;;;;;;;;;;;;;;5030925;28;19917;-71
2023/12/13 12:11:04;;;;;;;;;;;;;;;;;;5029967;28;19923;-71
2023/12/13 12:13:30;;;;;;;;;;;;;;;;;;5031284;28;19909;-71
2023/12/13 12:15:56;;;;;;;;;;;;;;;;;;5030384;28;19928;-71
2023/12/13 12:18:22;;;;;;;;;;;;;;;;;;5031632;28;20003;-71
2023/12/13 12:20:49;;;;;;;;;;;;;;;;;;5031584;28;19921;-71
2023/12/13 12:23:15;;;;;;;;;;;;;;;;;;5030458;28;19909;-71
2023/12/13 12:25:42;;;;;;;;;;;;;;;;;;5031581;28;19920;-71
2023/12/13 12:28:10;;;;;;;;;;;;;;;;;;5031257;28;19917;-71
2023/12/13 12:30:38;;;;;;;;;;;;;;;;;;5031693;28;19909;-70
2023/12/13 12:33:04;;;;;;;;;;;;;;;;;;5031748;28;19962;-70
2023/12/13 12:35:30;;;;;;;;;;;;;;;;;;5031765;28;19910;-71
2023/12/13 12:37:57;;;;;;;;;;;;;;;;;;5031646;28;19917;-71
2023/12/13 12:40:23;;;;;;;;;;;;;;;;;;5031860;28;19916;-71
2023/12/13 12:42:49;;;;;;;;;;;;;;;;;;5031134;28;19913;-71
2023/12/13 12:45:16;;;;;;;;;;;;;;;;;;5031719;28;19913;-71
2023/12/13 12:47:42;;;;;;;;;;;;;;;;;;5031383;28;19917;-71
2023/12/13 12:50:08;;;;;;;;;;;;;;;;;;5030738;28;19913;-71
2023/12/13 12:52:35;;;;;;;;;;;;;;;;;;5031531;28;19909;-71
2023/12/13 12:55:01;;;;;;;;;;;;;;;;;;5031431;28;19917;-71
2023/12/13 12:57:27;;;;;;;;;;;;;;;;;;5031506;28;20382;-70
2023/12/13 12:59:54;;;;;;;;;;;;;;;;;;5031639;28;19916;-70
2023/12/13 13:02:20;;;;;;;;;;;;;;;;;;5031715;28;19963;-70
2023/12/13 13:04:46;;;;;;;;;;;;;;;;;;5031667;28;19919;-70
2023/12/13 13:07:13;;;;;;;;;;;;;;;;;;5031461;28;19936;-70
2023/12/13 13:09:39;;;;;;;;;;;;;;;;;;5031957;28;19909;-71
2023/12/13 13:12:05;;;;;;;;;;;;;;;;;;5030851;28;19920;-70
2023/12/13 13:14:31;;;;;;;;;;;;;;;;;;5031269;28;20370;-71
2023/12/13 13:16:58;;;;;;;;;;;;;;;;;;5031557;28;19955;-70
2023/12/13 13:19:25;;;;;;;;;;;;;;;;;;5032020;28;19919;-71
2023/12/13 13:21:51;;;;;;;;;;;;;;;;;;5035090;28;20374;-71
2023/12/13 13:24:17;;;;;;;;;;;;;;;;;;5035203;28;20419;-70
2023/12/13 13:26:43;;;;;;;;;;;;;;;;;;5034540;28;20317;-70
2023/12/13 13:29:10;;;;;;;;;;;;;;;;;;5035339;28;19935;-70
2023/12/13 13:31:36;;;;;;;;;;;;;;;;;;5035312;28;19909;-71
2023/12/13 13:34:03;;;;;;;;;;;;;;;;;;5035330;28;19920;-71
2023/12/13 13:36:29;;;;;;;;;;;;;;;;;;5034955;28;20374;-71
2023/12/13 13:38:55;;;;;;;;;;;;;;;;;;5034756;28;19910;-71
2023/12/13 13:41:22;;;;;;;;;;;;;;;;;;5034686;28;19909;-70
2023/12/13 13:43:48;;;;;;;;;;;;;;;;;;5031892;28;19924;-71
2023/12/13 13:46:14;;;;;;;;;;;;;;;;;;5032784;28;19913;-70
2023/12/13 13:48:40;;;;;;;;;;;;;;;;;;5034141;28;19947;-71
2023/12/13 13:51:06;;;;;;;;;;;;;;;;;;5033680;28;19939;-71
2023/12/13 13:53:33;;;;;;;;;;;;;;;;;;5034035;28;19917;-71
2023/12/13 13:55:59;;;;;;;;;;;;;;;;;;5034232;28;20174;-70
2023/12/13 13:58:25;;;;;;;;;;;;;;;;;;5033966;28;19921;-70
2023/12/13 14:00:51;;;;;;;;;;;;;;;;;;5034017;28;19923;-71
2023/12/13 14:03:17;;;;;;;;;;;;;;;;;;5034060;28;20362;-71
2023/12/13 14:05:43;;;;;;;;;;;;;;;;;;5034181;28;20329;-71
2023/12/13 14:08:10;;;;;;;;;;;;;;;;;;5033623;28;19935;-71
2023/12/13 14:10:36;;;;;;;;;;;;;;;;;;5033860;28;20289;-71
2023/12/13 14:13:02;;;;;;;;;;;;;;;;;;5039677;28;19916;-70
2023/12/13 14:15:28;;;;;;;;;;;;;;;;;;5053990;28;19917;-71
2023/12/13 14:17:55;;;;;;;;;;;;;;;;;;5052540;28;19958;-71
2023/12/13 14:20:21;;;;;;;;;;;;;;;;;;5053632;28;19926;-71
2023/12/13 14:22:47;;;;;;;;;;;;;;;;;;5049529;28;20294;-71
2023/12/13 14:25:13;;;;;;;;;;;;;;;;;;5033594;28;19941;-71
2023/12/13 14:27:39;;;;;;;;;;;;;;;;;;5033329;28;19950;-71
2023/12/13 14:30:06;;;;;;;;;;;;;;;;;;5033610;28;20348;-70
2023/12/13 14:32:32;;;;;;;;;;;;;;;;;;5032434;28;19919;-71
2023/12/13 14:34:58;;;;;;;;;;;;;;;;;;5033875;28;19924;-71
2023/12/13 14:37:25;;;;;;;;;;;;;;;;;;5033381;28;19913;-71
2023/12/13 14:39:51;;;;;;;;;;;;;;;;;;5033281;28;19913;-71
2023/12/13 14:42:17;;;;;;;;;;;;;;;;;;5033368;28;20293;-71
2023/12/13 14:44:43;;;;;;;;;;;;;;;;;;5033088;28;19951;-71
2023/12/13 14:47:10;;;;;;;;;;;;;;;;;;5033109;28;20344;-71
2023/12/13 14:49:36;;;;;;;;;;;;;;;;;;5033306;28;20378;-71
2023/12/13 14:52:02;;;;;;;;;;;;;;;;;;5030826;28;19917;-71
2023/12/13 14:54:28;;;;;;;;;;;;;;;;;;5031880;28;20278;-71
2023/12/13 14:56:54;;;;;;;;;;;;;;;;;;5033058;28;19913;-71
2023/12/13 14:59:21;;;;;;;;;;;;;;;;;;5033376;28;19913;-71
2023/12/13 15:01:48;;;;;;;;;;;;;;;;;;5033141;28;19909;-71
2023/12/13 15:04:15;;;;;;;;;;;;;;;;;;5033188;28;19917;-71
2023/12/13 15:06:42;;;;;;;;;;;;;;;;;;5032691;28;19963;-71
2023/12/13 15:09:08;;;;;;;;;;;;;;;;;;5033038;28;19921;-71
2023/12/13 15:11:34;;;;;;;;;;;;;;;;;;5033213;28;20342;-71
2023/12/13 15:14:00;;;;;;;;;;;;;;;;;;5033170;28;19923;-71
2023/12/13 15:16:26;;;;;;;;;;;;;;;;;;5033353;28;19913;-71
2023/12/13 15:18:53;;;;;;;;;;;;;;;;;;5032872;28;19913;-71
2023/12/13 15:21:19;;;;;;;;;;;;;;;;;;5032253;28;19916;-70
2023/12/13 15:23:46;;;;;;;;;;;;;;;;;;5032976;28;19913;-71
2023/12/13 15:26:12;;;;;;;;;;;;;;;;;;5033045;28;19909;-71
2023/12/13 15:28:39;;;;;;;;;;;;;;;;;;5032186;28;19927;-71
2023/12/13 15:31:05;;;;;;;;;;;;;;;;;;5032557;28;19943;-71
2023/12/13 15:33:32;;;;;;;;;;;;;;;;;;5032967;28;19920;-70
2023/12/13 15:35:58;;;;;;;;;;;;;;;;;;5030527;28;19913;-70
2023/12/13 15:38:24;;;;;;;;;;;;;;;;;;5032417;28;19917;-71
2023/12/13 15:40:50;;;;;;;;;;;;;;;;;;5032473;28;19920;-71
2023/12/13 15:43:16;;;;;;;;;;;;;;;;;;5032291;28;19943;-71
2023/12/13 15:45:42;;;;;;;;;;;;;;;;;;5031155;28;20370;-71
2023/12/13 15:48:10;;;;;;;;;;;;;;;;;;5031811;28;19917;-70
2023/12/13 15:50:36;;;;;;;;;;;;;;;;;;5031809;28;19909;-71
2023/12/13 15:53:02;;;;;;;;;;;;;;;;;;5031496;28;19921;-71
2023/12/13 15:55:28;;;;;;;;;;;;;;;;;;5031209;28;19920;-71
2023/12/13 15:57:54;;;;;;;;;;;;;;;;;;5031960;28;19915;-70
2023/12/13 16:00:23;;;;;;;;;;;;;;;;;;5032243;28;19916;-71
2023/12/13 16:02:49;;;;;;;;;;;;;;;;;;5032006;28;19916;-71
2023/12/13 16:05:15;;;;;;;;;;;;;;;;;;5030543;28;19909;-71
2023/12/13 16:07:43;;;;;;;;;;;;;;;;;;5031688;28;19928;-71
2023/12/13 16:10:09;;;;;;;;;;;;;;;;;;5032140;28;20310;-71
2023/12/13 16:12:35;;;;;;;;;;;;;;;;;;5032378;28;19913;-71
2023/12/13 16:15:02;;;;;;;;;;;;;;;;;;5032708;28;19955;-70
2023/12/13 16:17:28;;;;;;;;;;;;;;;;;;5032606;28;19913;-71
2023/12/13 16:19:55;;;;;;;;;;;;;;;;;;5032268;28;19909;-71
2023/12/13 16:22:21;;;;;;;;;;;;;;;;;;5032678;28;19909;-71
2023/12/13 16:24:47;;;;;;;;;;;;;;;;;;5032147;28;19913;-71
2023/12/13 16:27:13;;;;;;;;;;;;;;;;;;5032072;28;20398;-71
2023/12/13 16:29:40;;;;;;;;;;;;;;;;;;5032486;28;19913;-71
2023/12/13 16:32:06;;;;;;;;;;;;;;;;;;5032312;28;19909;-71
2023/12/13 16:34:32;;;;;;;;;;;;;;;;;;5031723;28;19963;-70
2023/12/13 16:36:58;;;;;;;;;;;;;;;;;;5032163;28;19915;-71
2023/12/13 16:39:25;;;;;;;;;;;;;;;;;;5032079;28;19939;-71